Time;durP1;ratioP1;P1;durP2;ratioP2;P2;SDS_P1;SDS_P2;PMS_P1;PMS_P2;Temp;Humidity;BMP_temperature;BMP_pressure;BME280_temperature;BME280_humidity;BME280_pressure;Samples;Min_cycle;Max_cycle;Signal;HPM_P1;HPM_P2
2021/12/24 00:01:55;;;;;;;20.87;11.83;;;3.90;99.90;3.70;99048.00;;;;5013655;27;84450;-71
2021/12/24 00:04:21;;;;;;;21.10;10.53;;;3.80;99.90;3.70;99054.00;;;;5013871;27;84043;-71
2021/12/24 00:06:49;;;;;;;26.90;12.60;;;3.30;99.90;3.70;99047.00;;;;5013912;27;83694;-70
2021/12/24 00:09:21;;;;;;;17.20;11.40;;;3.90;99.90;3.70;99042.00;;;;5019364;27;83458;-70
2021/12/24 00:11:49;;;;;;;15.57;9.93;;;4.00;99.90;3.80;99048.00;;;;5013507;27;83587;-71
2021/12/24 00:14:15;;;;;;;18.73;11.03;;;4.00;99.90;3.80;99043.00;;;;5016892;27;82934;-71
2021/12/24 00:16:46;;;;;;;14.57;10.33;;;4.00;99.90;3.90;99021.00;;;;5014972;27;83878;-71
2021/12/24 00:19:36;;;;;;;21.47;11.87;;;4.10;99.90;3.90;99022.00;;;;5014294;27;83477;-72
2021/12/24 00:35:33;;;;;;;19.17;11.67;;;4.20;99.90;4.00;99002.00;;;;5011364;27;83521;-71
2021/12/24 00:38:03;;;;;;;19.83;11.80;;;4.20;99.90;4.10;99006.00;;;;5016868;27;83733;-73
2021/12/24 00:40:48;;;;;;;16.70;10.17;;;4.30;99.90;4.00;99000.00;;;;5016309;27;83602;-72
2021/12/24 00:43:16;;;;;;;21.03;10.80;;;4.30;99.90;4.10;98990.00;;;;5014458;27;83505;-74
2021/12/24 00:45:45;;;;;;;18.27;10.73;;;4.30;99.90;4.10;98997.00;;;;5014335;27;84945;-76
2021/12/24 00:48:16;;;;;;;22.20;12.40;;;4.30;99.90;4.10;98987.00;;;;5014442;27;84156;-73
2021/12/24 00:56:03;;;;;;;18.73;10.93;;;4.20;99.90;4.10;98981.00;;;;5015936;27;83683;-74
2021/12/24 00:58:30;;;;;;;21.30;11.50;;;4.30;99.90;4.10;98988.00;;;;5015980;27;98533;-70
2021/12/24 01:00:56;;;;;;;15.93;10.80;;;4.30;99.90;4.10;98989.00;;;;5016133;27;83397;-71
2021/12/24 01:03:22;;;;;;;20.37;10.93;;;4.40;99.90;4.10;98981.00;;;;5016279;27;84873;-71
2021/12/24 01:05:48;;;;;;;20.57;12.17;;;4.30;99.90;4.10;98981.00;;;;5015122;27;113663;-72
2021/12/24 01:08:15;;;;;;;21.43;12.87;;;4.30;99.90;4.10;98979.00;;;;4995804;27;112880;-70
2021/12/24 01:10:46;;;;;;;23.00;11.10;;;4.30;99.90;4.10;98982.00;;;;5024371;27;83430;-73
2021/12/24 01:13:13;;;;;;;25.27;12.47;;;4.40;99.90;4.10;98975.00;;;;5021732;27;83674;-72
2021/12/24 01:15:50;;;;;;;19.80;11.00;;;4.30;99.90;4.10;98972.00;;;;5023412;27;84416;-73
2021/12/24 01:18:27;;;;;;;21.30;11.77;;;4.30;99.90;4.10;98985.00;;;;5015744;27;85741;-72
2021/12/24 01:21:08;;;;;;;19.77;11.60;;;5.30;99.90;4.10;98973.00;;;;5023352;27;84030;-74
2021/12/24 01:39:13;;;;;;;14.77;9.97;;;4.40;99.90;4.20;98976.00;;;;5014334;27;83899;-74
2021/12/24 01:44:27;;;;;;;15.30;9.83;;;4.40;99.90;4.20;98964.00;;;;5013099;27;84332;-78
2021/12/24 01:47:03;;;;;;;16.17;10.57;;;4.40;99.90;4.20;98963.00;;;;5026187;27;83229;-77
2021/12/24 01:49:28;;;;;;;17.17;10.57;;;4.40;99.90;4.20;98959.00;;;;5029926;27;83415;-75
2021/12/24 01:51:55;;;;;;;22.03;11.70;;;5.60;99.90;4.30;98968.00;;;;5013068;27;83698;-79
2021/12/24 01:54:21;;;;;;;15.20;9.90;;;4.40;99.90;4.30;98963.00;;;;5026438;27;85751;-78
2021/12/24 01:56:47;;;;;;;16.60;10.60;;;4.40;99.90;4.30;98949.00;;;;5014685;27;113131;-75
2021/12/24 01:59:14;;;;;;;16.70;10.43;;;4.40;99.90;4.30;98946.00;;;;5021964;27;109818;-73
2021/12/24 02:01:40;;;;;;;18.57;10.33;;;4.30;99.90;4.30;98952.00;;;;5014589;27;83481;-75
2021/12/24 02:04:06;;;;;;;18.53;10.70;;;4.50;99.90;4.30;98946.00;;;;5011441;27;112599;-78
2021/12/24 02:06:32;;;;;;;18.83;11.10;;;4.50;99.90;4.30;98931.00;;;;5020759;27;83968;-75
2021/12/24 02:08:58;;;;;;;15.20;9.00;;;4.50;99.90;4.40;98933.00;;;;5028593;27;106261;-75
2021/12/24 02:11:24;;;;;;;16.67;9.60;;;4.60;99.90;4.40;98930.00;;;;5015049;27;82608;-74
2021/12/24 02:13:51;;;;;;;18.83;10.67;;;4.50;99.90;4.40;98944.00;;;;5012996;27;96435;-78
2021/12/24 02:30:03;;;;;;;13.57;9.37;;;4.70;99.90;4.60;98914.00;;;;5015964;27;82862;-77
2021/12/24 02:32:28;;;;;;;20.00;9.50;;;4.80;99.90;4.60;98910.00;;;;5016846;27;82891;-76
2021/12/24 02:34:54;;;;;;;13.13;8.63;;;4.80;99.90;4.60;98909.00;;;;5014310;27;113371;-74
2021/12/24 02:37:20;;;;;;;17.00;9.00;;;5.40;99.90;4.70;98914.00;;;;5014355;27;113413;-76
2021/12/24 02:39:45;;;;;;;15.87;8.63;;;4.80;99.90;4.70;98906.00;;;;5012646;27;110129;-76
2021/12/24 02:42:19;;;;;;;15.70;8.77;;;4.80;99.90;4.70;98903.00;;;;5012503;27;93106;-74
2021/12/24 02:44:48;;;;;;;14.53;8.57;;;4.90;99.90;4.80;98905.00;;;;5013181;27;86491;-74
2021/12/24 02:55:09;;;;;;;15.93;8.67;;;5.00;99.90;4.90;98900.00;;;;5012265;27;82923;-74
2021/12/24 02:57:38;;;;;;;18.17;8.00;;;5.10;99.90;4.90;98887.00;;;;5014463;27;95420;-74
2021/12/24 03:00:14;;;;;;;15.90;9.10;;;5.00;99.90;4.90;98901.00;;;;5016101;27;83690;-76
2021/12/24 03:02:43;;;;;;;13.23;8.30;;;5.10;99.90;5.00;98899.00;;;;5014570;27;82737;-75
2021/12/24 03:05:09;;;;;;;12.77;8.60;;;5.10;99.90;5.00;98895.00;;;;5013498;27;83048;-73
2021/12/24 03:07:34;;;;;;;14.83;8.53;;;5.10;99.90;5.00;98894.00;;;;5015161;27;82661;-76
2021/12/24 03:10:00;;;;;;;18.57;9.67;;;5.20;99.90;5.00;98887.00;;;;5012088;27;102839;-76
2021/12/24 03:12:27;;;;;;;17.33;9.40;;;5.20;99.90;5.10;98884.00;;;;5013176;27;98808;-73
2021/12/24 03:14:54;;;;;;;12.13;8.17;;;5.00;99.90;5.10;98889.00;;;;5014879;27;83855;-75
2021/12/24 03:17:23;;;;;;;14.67;8.90;;;5.20;99.90;5.10;98871.00;;;;5014113;27;112691;-73
2021/12/24 03:19:49;;;;;;;11.77;8.27;;;5.20;99.90;5.10;98879.00;;;;5013181;27;84016;-72
2021/12/24 03:24:40;;;;;;;13.10;8.00;;;5.30;99.90;5.20;98881.00;;;;5009149;27;101830;-74
2021/12/24 03:27:08;;;;;;;15.57;8.57;;;5.40;99.90;5.20;98875.00;;;;5014889;27;83961;-74
2021/12/24 03:29:35;;;;;;;15.47;8.17;;;5.40;99.90;5.20;98873.00;;;;5018911;27;82804;-73
2021/12/24 03:32:03;;;;;;;12.40;7.70;;;5.40;99.90;5.30;98873.00;;;;5014249;27;98140;-74
2021/12/24 03:34:28;;;;;;;12.13;8.60;;;5.40;99.90;5.30;98867.00;;;;5013023;27;83547;-74
2021/12/24 03:36:54;;;;;;;12.77;8.13;;;5.40;99.90;5.30;98879.00;;;;5012354;27;82779;-75
2021/12/24 03:39:20;;;;;;;11.60;7.73;;;5.50;99.90;5.30;98879.00;;;;5012379;27;90201;-76
2021/12/24 03:41:46;;;;;;;11.20;7.33;;;5.50;99.90;5.30;98887.00;;;;5014621;27;82326;-75
2021/12/24 03:44:14;;;;;;;12.30;7.57;;;5.40;99.90;5.40;98877.00;;;;5012679;27;82944;-74
2021/12/24 03:47:34;;;;;;;13.20;8.30;;;5.40;99.90;5.40;98874.00;;;;5016744;27;82934;-73
2021/12/24 03:49:38;;;;;;;10.27;7.30;;;5.50;99.90;5.40;98882.00;;;;5002591;27;83780;-75
2021/12/24 03:52:31;;;;;;;14.10;7.87;;;6.10;99.90;5.40;98886.00;;;;5013937;27;82641;-74
2021/12/24 03:55:00;;;;;;;14.57;8.60;;;5.60;99.90;5.50;98889.00;;;;5013814;27;84893;-74
2021/12/24 03:57:40;;;;;;;9.40;7.60;;;5.60;99.90;5.40;98886.00;;;;5017147;27;83343;-76
2021/12/24 04:00:12;;;;;;;11.40;7.33;;;5.60;99.90;5.50;98881.00;;;;5015977;27;82804;-75
2021/12/24 04:02:37;;;;;;;10.43;6.43;;;5.70;99.90;5.60;98887.00;;;;5005504;27;83026;-75
2021/12/24 04:05:04;;;;;;;11.93;6.63;;;5.60;99.90;5.50;98885.00;;;;5057831;27;84072;-74
2021/12/24 04:07:29;;;;;;;21.70;8.53;;;5.60;99.90;5.60;98890.00;;;;5057794;27;83288;-74
2021/12/24 04:10:02;;;;;;;10.60;6.83;;;5.70;99.90;5.60;98888.00;;;;5058981;27;82743;-74
2021/12/24 04:12:28;;;;;;;10.83;6.63;;;5.80;99.90;5.70;98898.00;;;;5050277;27;82847;-74
2021/12/24 04:14:54;;;;;;;10.27;6.60;;;5.80;99.90;5.70;98885.00;;;;5031141;27;84215;-74
2021/12/24 04:17:21;;;;;;;10.73;6.90;;;5.90;99.90;5.70;98889.00;;;;5058020;27;86296;-78
2021/12/24 04:25:15;;;;;;;9.13;5.17;;;5.90;99.90;5.80;98864.00;;;;5047256;27;82794;-72
2021/12/24 04:27:41;;;;;;;8.47;5.40;;;5.80;99.90;5.80;98868.00;;;;5057300;27;83695;-73
2021/12/24 04:30:12;;;;;;;7.83;5.23;;;5.90;99.90;5.80;98862.00;;;;5058821;27;82609;-72
2021/12/24 04:35:20;;;;;;;9.10;5.70;;;6.00;99.90;5.90;98865.00;;;;5054811;27;83113;-74
2021/12/24 04:38:09;;;;;;;8.60;5.53;;;6.00;99.90;5.90;98856.00;;;;5022731;27;84499;-74
2021/12/24 04:51:21;;;;;;;10.03;5.60;;;6.10;99.90;6.00;98852.00;;;;5048061;27;82742;-76
2021/12/24 05:04:34;;;;;;;8.37;5.03;;;6.20;99.90;6.10;98862.00;;;;5036437;27;82817;-74
2021/12/24 05:08:02;;;;;;;8.10;5.53;;;6.20;99.90;6.10;98846.00;;;;5056866;27;84065;-76
2021/12/24 05:09:49;;;;;;;6.07;5.13;;;6.30;99.90;6.20;98849.00;;;;5043020;27;82995;-73
2021/12/24 05:12:15;;;;;;;8.37;5.37;;;6.30;99.90;6.20;98841.00;;;;5055322;27;111695;-72
2021/12/24 05:14:40;;;;;;;5.90;4.37;;;6.30;99.90;6.20;98842.00;;;;5057489;27;109021;-73
2021/12/24 05:22:30;;;;;;;7.13;4.97;;;6.40;99.90;6.30;98833.00;;;;5055911;27;82741;-74
2021/12/24 05:24:57;;;;;;;7.10;4.30;;;6.40;99.90;6.30;98824.00;;;;5038606;27;82279;-73
2021/12/24 05:27:23;;;;;;;7.07;4.87;;;6.40;99.90;6.30;98821.00;;;;5057337;27;83150;-73
2021/12/24 05:29:49;;;;;;;7.87;4.70;;;6.40;99.90;6.30;98826.00;;;;5056366;27;111965;-73
2021/12/24 05:32:15;;;;;;;9.20;5.13;;;6.50;99.90;6.30;98821.00;;;;5036295;27;109916;-74
2021/12/24 05:34:40;;;;;;;11.53;5.20;;;6.40;99.90;6.40;98831.00;;;;5051337;27;109279;-75
2021/12/24 05:37:06;;;;;;;6.17;4.90;;;6.50;99.90;6.40;98826.00;;;;5055353;27;113019;-74
2021/12/24 05:39:34;;;;;;;8.30;5.77;;;6.50;99.90;6.40;98829.00;;;;5056328;27;98112;-75
2021/12/24 05:42:01;;;;;;;8.27;5.17;;;6.40;99.90;6.40;98822.00;;;;5055969;27;83081;-73
2021/12/24 05:44:27;;;;;;;7.07;5.23;;;6.50;99.90;6.40;98823.00;;;;5057007;27;82670;-76
2021/12/24 05:46:53;;;;;;;5.93;4.80;;;6.60;99.90;6.40;98822.00;;;;5055682;27;112519;-73
2021/12/24 05:49:19;;;;;;;7.03;4.63;;;6.60;99.90;6.50;98830.00;;;;5054387;27;106963;-73
2021/12/24 05:51:44;;;;;;;5.20;4.57;;;6.60;99.90;6.50;98815.00;;;;5056552;27;83200;-76
2021/12/24 05:54:11;;;;;;;5.60;4.53;;;6.60;99.90;6.50;98823.00;;;;5055393;27;105939;-73
2021/12/24 05:56:38;;;;;;;5.90;4.13;;;6.70;99.90;6.50;98832.00;;;;5028194;27;84049;-74
2021/12/24 05:59:05;;;;;;;6.87;5.53;;;6.60;99.90;6.50;98821.00;;;;5036901;27;83630;-75
2021/12/24 06:01:32;;;;;;;5.83;4.77;;;6.60;99.90;6.50;98818.00;;;;5027922;27;83705;-74
2021/12/24 06:03:58;;;;;;;7.20;5.43;;;6.70;99.90;6.60;98819.00;;;;5051041;27;82919;-74
2021/12/24 06:06:23;;;;;;;8.70;5.70;;;6.70;99.90;6.60;98813.00;;;;5056413;27;91191;-76
2021/12/24 06:08:49;;;;;;;6.60;4.90;;;6.70;99.90;6.60;98815.00;;;;5032280;27;101563;-78
2021/12/24 06:11:15;;;;;;;5.63;3.87;;;6.70;99.90;6.60;98802.00;;;;5054623;27;110554;-74
2021/12/24 06:13:41;;;;;;;12.43;5.73;;;6.70;99.90;6.60;98788.00;;;;5017080;27;82030;-75
2021/12/24 06:16:09;;;;;;;8.57;5.63;;;6.70;99.90;6.70;98799.00;;;;5055532;27;105516;-74
2021/12/24 06:18:38;;;;;;;6.73;4.67;;;6.80;99.90;6.70;98791.00;;;;5055848;27;83057;-75
2021/12/24 06:21:04;;;;;;;7.33;5.23;;;6.80;99.90;6.70;98810.00;;;;5055684;27;83946;-75
2021/12/24 06:23:31;;;;;;;9.67;5.90;;;6.80;99.90;6.70;98799.00;;;;5037177;27;82659;-74
2021/12/24 06:25:59;;;;;;;10.27;5.03;;;6.80;99.90;6.70;98801.00;;;;5054951;27;83138;-73
2021/12/24 06:28:25;;;;;;;7.97;6.00;;;6.80;99.90;6.80;98797.00;;;;5044224;27;97464;-73
2021/12/24 06:30:53;;;;;;;10.07;6.33;;;6.90;99.90;6.80;98796.00;;;;5050213;27;98884;-74
2021/12/24 06:33:19;;;;;;;7.67;6.27;;;6.90;99.90;6.80;98795.00;;;;5042876;27;83078;-73
2021/12/24 06:35:46;;;;;;;6.27;5.00;;;6.90;99.90;6.80;98802.00;;;;5041358;27;109663;-75
2021/12/24 06:38:12;;;;;;;6.97;5.47;;;6.90;99.90;6.90;98803.00;;;;5047085;27;112505;-75
2021/12/24 06:40:38;;;;;;;8.83;6.30;;;7.00;99.90;6.90;98804.00;;;;5049063;27;95263;-74
2021/12/24 06:43:04;;;;;;;8.80;4.83;;;7.00;99.90;6.90;98807.00;;;;5019798;27;83163;-74
2021/12/24 06:45:31;;;;;;;9.17;5.60;;;7.00;99.90;6.90;98809.00;;;;5051261;27;84361;-74
2021/12/24 06:47:59;;;;;;;7.67;5.23;;;7.00;99.90;6.90;98811.00;;;;5054868;27;84267;-74
2021/12/24 06:50:26;;;;;;;9.00;4.83;;;6.80;99.90;7.00;98802.00;;;;5054757;27;82693;-74
2021/12/24 06:52:53;;;;;;;11.07;5.70;;;7.00;99.90;7.00;98802.00;;;;5053062;27;82743;-73
2021/12/24 06:55:19;;;;;;;6.23;5.00;;;7.20;99.90;7.00;98800.00;;;;5033117;27;83029;-74
2021/12/24 06:57:46;;;;;;;9.47;5.57;;;7.10;99.90;7.00;98805.00;;;;5042459;27;112578;-74
2021/12/24 07:00:18;;;;;;;7.77;5.63;;;7.10;99.90;7.00;98802.00;;;;5046729;27;82934;-74
2021/12/24 07:02:44;;;;;;;7.07;5.23;;;7.10;99.90;7.10;98803.00;;;;5027697;27;81837;-75
2021/12/24 07:05:10;;;;;;;9.53;5.87;;;7.20;99.90;7.10;98805.00;;;;5031937;27;83136;-73
2021/12/24 07:07:36;;;;;;;9.13;6.60;;;7.20;99.90;7.10;98796.00;;;;5032067;27;112138;-74
2021/12/24 07:10:04;;;;;;;8.17;4.90;;;7.20;99.90;7.10;98807.00;;;;5026788;27;85562;-74
2021/12/24 07:12:30;;;;;;;7.67;5.57;;;7.20;99.90;7.20;98804.00;;;;5051811;27;82624;-76
2021/12/24 07:14:56;;;;;;;8.27;5.60;;;7.30;99.90;7.20;98803.00;;;;5036763;27;85068;-76
2021/12/24 07:17:21;;;;;;;10.23;6.27;;;7.30;99.90;7.20;98813.00;;;;5032385;27;112951;-75
2021/12/24 07:19:47;;;;;;;9.33;6.10;;;7.40;99.90;7.20;98809.00;;;;5026893;27;83123;-75
2021/12/24 07:22:14;;;;;;;9.13;6.37;;;7.30;99.90;7.20;98808.00;;;;5053949;27;108574;-75
2021/12/24 07:24:40;;;;;;;10.63;6.07;;;7.40;99.90;7.30;98807.00;;;;5019649;27;85263;-74
2021/12/24 07:27:06;;;;;;;13.13;8.60;;;7.30;99.90;7.30;98807.00;;;;5044448;27;83166;-74
2021/12/24 07:29:33;;;;;;;12.53;8.20;;;7.40;99.90;7.30;98793.00;;;;5029351;27;103636;-75
2021/12/24 07:31:58;;;;;;;9.93;7.13;;;7.40;99.90;7.30;98803.00;;;;5051599;27;82991;-75
2021/12/24 07:34:24;;;;;;;10.17;6.30;;;7.40;99.90;7.40;98810.00;;;;5025314;27;115151;-75
2021/12/24 07:36:50;;;;;;;12.93;8.37;;;7.40;99.90;7.40;98807.00;;;;5047407;27;113436;-75
2021/12/24 07:39:16;;;;;;;16.27;9.07;;;7.40;99.90;7.40;98812.00;;;;5046800;27;108354;-76
2021/12/24 07:41:42;;;;;;;11.83;7.77;;;7.50;99.90;7.40;98801.00;;;;5026795;27;84585;-75
2021/12/24 07:44:08;;;;;;;12.43;7.73;;;7.50;99.90;7.40;98805.00;;;;5051105;27;83208;-76
2021/12/24 07:46:49;;;;;;;12.67;7.43;;;7.30;99.90;7.50;98809.00;;;;5019773;27;85504;-75
2021/12/24 07:49:30;;;;;;;11.70;7.10;;;7.50;99.90;7.50;98808.00;;;;5055437;27;83248;-75
2021/12/24 07:54:24;;;;;;;14.20;7.70;;;7.60;99.90;7.50;98802.00;;;;5055020;27;82676;-77
2021/12/24 07:56:50;;;;;;;10.33;7.43;;;7.60;99.90;7.50;98798.00;;;;5057428;27;112648;-75
2021/12/24 07:59:16;;;;;;;7.87;6.67;;;7.70;99.90;7.60;98802.00;;;;5037593;27;110225;-76
2021/12/24 08:01:46;;;;;;;10.00;6.43;;;7.60;99.90;7.60;98794.00;;;;5030433;27;82901;-76
2021/12/24 08:04:13;;;;;;;11.47;6.47;;;7.70;99.90;7.60;98805.00;;;;5046919;27;83093;-76
2021/12/24 08:06:39;;;;;;;12.47;7.30;;;8.60;99.90;7.60;98794.00;;;;5039885;27;84258;-76
2021/12/24 08:09:09;;;;;;;11.50;6.43;;;7.40;99.90;7.60;98771.00;;;;5031095;27;107600;-78
2021/12/24 08:11:36;;;;;;;13.07;6.00;;;7.70;99.90;7.60;98802.00;;;;5021136;27;82968;-77
2021/12/24 08:14:03;;;;;;;11.83;6.57;;;8.10;99.90;7.70;98800.00;;;;5057775;27;86358;-77
2021/12/24 08:16:30;;;;;;;8.77;6.37;;;7.70;99.90;7.70;98795.00;;;;5054418;27;83716;-77
2021/12/24 08:18:56;;;;;;;9.00;6.53;;;7.70;99.90;7.70;98805.00;;;;5050274;27;82823;-76
2021/12/24 08:21:22;;;;;;;7.23;5.53;;;7.80;99.90;7.70;98788.00;;;;5024694;27;92831;-78
2021/12/24 08:23:49;;;;;;;6.90;5.10;;;7.80;99.90;7.70;98800.00;;;;5017725;27;86353;-78
2021/12/24 08:26:16;;;;;;;9.77;6.10;;;7.80;99.90;7.80;98782.00;;;;5044972;27;113389;-77
2021/12/24 08:28:42;;;;;;;8.40;5.07;;;7.90;99.90;7.80;98792.00;;;;5038956;27;82974;-80
2021/12/24 08:31:09;;;;;;;5.80;4.87;;;7.90;99.90;7.80;98792.00;;;;5038634;27;82638;-78
2021/12/24 08:33:35;;;;;;;6.70;4.50;;;7.90;99.90;7.80;98782.00;;;;5030079;27;94932;-78
2021/12/24 08:36:06;;;;;;;8.07;5.50;;;7.80;99.90;7.80;98794.00;;;;5039557;27;83314;-77
2021/12/24 08:38:31;;;;;;;7.67;4.20;;;7.90;99.90;7.80;98778.00;;;;5007578;27;83091;-80
2021/12/24 08:40:57;;;;;;;6.63;4.70;;;7.90;99.90;7.90;98792.00;;;;5009328;27;90512;-77
2021/12/24 08:43:23;;;;;;;5.20;4.03;;;7.90;99.90;7.90;98785.00;;;;5019878;27;104208;-76
2021/12/24 08:45:48;;;;;;;5.67;3.97;;;7.90;99.90;7.90;98794.00;;;;5053023;27;113124;-74
2021/12/24 08:48:14;;;;;;;6.63;4.00;;;8.00;99.90;7.90;98778.00;;;;5043260;27;92884;-77
2021/12/24 08:50:41;;;;;;;6.53;4.43;;;8.00;99.90;7.90;98768.00;;;;5016201;27;82808;-76
2021/12/24 08:53:07;;;;;;;7.60;4.20;;;8.00;99.90;7.90;98782.00;;;;5056494;27;97620;-78
2021/12/24 08:55:34;;;;;;;7.40;4.07;;;7.90;99.90;7.90;98768.00;;;;5029063;27;82580;-78
2021/12/24 08:58:02;;;;;;;6.60;4.17;;;8.00;99.90;8.00;98771.00;;;;5032654;27;83173;-76
2021/12/24 09:00:28;;;;;;;5.80;3.87;;;8.10;99.90;8.00;98760.00;;;;5050664;27;82760;-75
2021/12/24 09:02:54;;;;;;;6.70;4.17;;;8.10;99.90;8.00;98760.00;;;;5026052;27;84370;-74
2021/12/24 09:05:19;;;;;;;5.33;4.07;;;8.10;99.90;8.00;98766.00;;;;5024642;27;83988;-76
2021/12/24 09:07:46;;;;;;;5.77;3.93;;;8.10;99.90;8.00;98764.00;;;;5046016;27;82706;-76
2021/12/24 09:10:12;;;;;;;7.40;4.37;;;9.30;99.90;8.00;98748.00;;;;5029384;27;82646;-76
2021/12/24 09:12:42;;;;;;;6.17;4.23;;;8.10;99.90;8.00;98750.00;;;;5021381;27;84809;-77
2021/12/24 09:15:09;;;;;;;5.60;3.93;;;8.10;99.90;8.00;98764.00;;;;5031499;27;83822;-77
2021/12/24 09:17:34;;;;;;;4.67;3.40;;;8.10;99.90;8.00;98755.00;;;;5040318;27;97214;-77
2021/12/24 09:20:00;;;;;;;5.27;3.83;;;8.10;99.90;8.10;98747.00;;;;5046979;27;108578;-77
2021/12/24 09:22:32;;;;;;;5.37;4.10;;;8.20;99.90;8.10;98759.00;;;;5056198;27;83035;-76
2021/12/24 09:24:58;;;;;;;4.90;3.37;;;8.10;99.90;8.10;98761.00;;;;5015459;27;85901;-75
2021/12/24 09:27:25;;;;;;;5.60;3.30;;;8.20;99.90;8.10;98765.00;;;;5056060;27;82707;-76
2021/12/24 09:29:51;;;;;;;6.43;3.50;;;8.10;99.90;8.10;98755.00;;;;5029953;27;82152;-75
2021/12/24 09:32:17;;;;;;;4.23;2.63;;;8.20;99.90;8.10;98760.00;;;;5026740;27;83056;-76
2021/12/24 09:34:43;;;;;;;4.77;3.40;;;8.20;99.90;8.10;98753.00;;;;5026221;27;82908;-75
2021/12/24 09:37:08;;;;;;;6.53;3.37;;;8.20;99.90;8.10;98771.00;;;;5050724;27;89494;-78
2021/12/24 09:39:34;;;;;;;5.87;3.37;;;8.20;99.90;8.20;98763.00;;;;5055137;27;108880;-74
2021/12/24 09:42:02;;;;;;;3.27;2.97;;;8.20;99.90;8.20;98772.00;;;;5041024;27;110282;-74
2021/12/24 09:44:28;;;;;;;4.10;2.70;;;8.20;99.90;8.20;98746.00;;;;5014359;27;83829;-75
2021/12/24 09:46:55;;;;;;;4.57;2.60;;;8.30;99.90;8.30;98754.00;;;;5053700;27;95198;-75
2021/12/24 09:49:22;;;;;;;2.80;2.50;;;8.30;99.90;8.30;98749.00;;;;5038009;27;82822;-76
2021/12/24 09:51:51;;;;;;;4.17;2.90;;;8.30;99.90;8.30;98741.00;;;;5047880;27;83828;-74
2021/12/24 09:54:23;;;;;;;5.33;2.97;;;8.40;99.90;8.30;98764.00;;;;5012604;27;84348;-74
2021/12/24 09:56:50;;;;;;;4.97;3.07;;;8.40;99.90;8.40;98749.00;;;;5047838;27;82787;-73
2021/12/24 09:59:17;;;;;;;4.37;2.07;;;8.40;99.90;8.40;98758.00;;;;5033263;27;83060;-72
2021/12/24 10:01:54;;;;;;;4.07;2.77;;;8.40;99.90;8.40;98758.00;;;;5051429;27;85924;-73
2021/12/24 10:04:26;;;;;;;4.00;2.50;;;8.40;99.90;8.40;98745.00;;;;5050826;27;84024;-73
2021/12/24 10:06:59;;;;;;;3.87;2.43;;;8.40;99.90;8.40;98732.00;;;;5049855;27;82733;-75
2021/12/24 10:09:49;;;;;;;5.20;2.63;;;8.50;99.90;8.40;98745.00;;;;5013577;27;83011;-74
2021/12/24 10:12:19;;;;;;;4.17;2.87;;;8.50;99.90;8.40;98741.00;;;;5029937;27;83509;-76
2021/12/24 10:14:52;;;;;;;2.57;1.87;;;8.60;99.90;8.50;98745.00;;;;5037675;27;83660;-74
2021/12/24 10:17:30;;;;;;;2.93;2.20;;;8.50;99.90;8.50;98739.00;;;;5022254;27;83152;-73
2021/12/24 10:20:00;;;;;;;6.03;2.23;;;8.50;99.90;8.50;98748.00;;;;5020387;27;81933;-72
2021/12/24 10:22:25;;;;;;;4.67;2.20;;;8.40;99.90;8.50;98745.00;;;;5029566;27;83437;-74
2021/12/24 10:25:08;;;;;;;2.87;2.13;;;8.60;99.90;8.50;98729.00;;;;5054439;27;109703;-73
2021/12/24 10:27:34;;;;;;;3.23;2.00;;;8.60;99.90;8.60;98734.00;;;;5032756;27;84018;-72
2021/12/24 10:30:29;;;;;;;4.13;2.50;;;8.60;99.90;8.60;98731.00;;;;5037813;27;82890;-74
2021/12/24 10:32:57;;;;;;;3.10;2.00;;;8.70;99.90;8.60;98740.00;;;;5023402;27;83563;-71
2021/12/24 10:35:30;;;;;;;2.73;1.97;;;8.70;99.90;8.70;98720.00;;;;5018648;27;84277;-72
2021/12/24 10:38:16;;;;;;;3.43;2.40;;;8.70;99.90;8.70;98708.00;;;;5055655;27;82523;-72
2021/12/24 10:40:55;;;;;;;2.77;1.93;;;8.80;99.90;8.70;98709.00;;;;5020482;27;82695;-73
2021/12/24 10:43:33;;;;;;;2.23;1.93;;;8.80;99.90;8.80;98728.00;;;;5052848;27;83123;-72
2021/12/24 10:46:28;;;;;;;2.20;1.70;;;8.80;99.90;8.80;98723.00;;;;5016443;27;85179;-72
2021/12/24 10:49:03;;;;;;;2.07;1.63;;;8.90;99.90;8.80;98729.00;;;;5002158;27;109260;-72
2021/12/24 10:54:14;;;;;;;4.33;2.20;;;8.90;99.90;8.90;98721.00;;;;5055401;27;83532;-70
2021/12/24 10:56:39;;;;;;;1.93;1.73;;;9.00;99.90;9.00;98725.00;;;;5035707;27;111290;-71
2021/12/24 10:59:05;;;;;;;4.97;1.83;;;9.10;99.90;9.00;98730.00;;;;5014225;27;111138;-70
2021/12/24 11:01:31;;;;;;;2.07;1.47;;;9.10;99.90;9.10;98724.00;;;;5055081;27;108094;-70
2021/12/24 11:03:57;;;;;;;2.30;1.50;;;9.10;99.90;9.10;98718.00;;;;5035836;27;112618;-72
2021/12/24 11:06:30;;;;;;;1.70;1.23;;;9.20;99.90;9.10;98698.00;;;;5055896;27;82963;-71
2021/12/24 11:08:58;;;;;;;1.40;1.30;;;9.20;99.90;9.20;98701.00;;;;5019217;27;86373;-69
2021/12/24 11:11:23;;;;;;;1.30;1.20;;;9.30;99.90;9.20;98709.00;;;;5037329;27;81756;-72
2021/12/24 11:13:52;;;;;;;2.23;1.70;;;9.30;99.90;9.20;98714.00;;;;5055346;27;83204;-73
2021/12/24 11:16:20;;;;;;;2.23;2.00;;;9.30;99.90;9.30;98702.00;;;;5036918;27;83028;-72
2021/12/24 11:19:00;;;;;;;1.80;1.27;;;9.30;99.90;9.30;98704.00;;;;5036417;27;83699;-71
2021/12/24 11:21:30;;;;;;;2.83;1.40;;;9.30;99.90;9.30;98708.00;;;;5019514;27;82959;-71
2021/12/24 11:23:56;;;;;;;2.33;1.43;;;9.40;99.90;9.40;98681.00;;;;5054917;27;82543;-71
2021/12/24 11:26:27;;;;;;;1.50;1.23;;;9.40;99.90;9.40;98703.00;;;;5014909;27;114996;-70
2021/12/24 11:28:55;;;;;;;1.73;1.43;;;9.50;99.90;9.50;98671.00;;;;5056010;27;82526;-70
2021/12/24 11:31:26;;;;;;;2.43;1.13;;;9.60;99.90;9.50;98694.00;;;;5054332;27;94899;-70
2021/12/24 11:33:52;;;;;;;3.77;1.53;;;9.60;99.90;9.60;98697.00;;;;5042705;27;83197;-70
2021/12/24 11:36:22;;;;;;;1.47;1.20;;;9.60;99.90;9.60;98687.00;;;;5055981;27;83180;-69
2021/12/24 11:38:58;;;;;;;1.57;1.30;;;9.70;99.90;9.60;98696.00;;;;5044396;27;97770;-71
2021/12/24 11:41:29;;;;;;;1.67;1.30;;;9.70;99.90;9.70;98679.00;;;;5016637;27;82696;-71
2021/12/24 11:43:56;;;;;;;2.53;2.07;;;9.80;99.90;9.80;98687.00;;;;5031526;27;84795;-71
2021/12/24 11:46:24;;;;;;;2.43;1.43;;;9.80;99.90;9.90;98677.00;;;;5018817;27;86180;-72
2021/12/24 11:48:52;;;;;;;2.40;1.83;;;9.90;99.90;10.00;98683.00;;;;5050992;27;89411;-71
2021/12/24 11:51:23;;;;;;;1.97;1.20;;;10.00;99.90;10.00;98682.00;;;;5050919;27;82612;-72
2021/12/24 11:53:52;;;;;;;1.73;1.40;;;10.00;99.90;10.10;98687.00;;;;5047965;27;82775;-73
2021/12/24 11:56:20;;;;;;;2.30;1.30;;;10.10;99.90;10.10;98692.00;;;;5032765;27;82716;-73
2021/12/24 11:58:52;;;;;;;1.93;1.67;;;10.10;99.90;10.10;98681.00;;;;5019233;27;82757;-72
2021/12/24 12:01:27;;;;;;;3.47;2.30;;;10.10;99.90;10.10;98684.00;;;;5051132;27;82141;-71
2021/12/24 12:03:56;;;;;;;1.70;1.60;;;10.20;99.90;10.00;98694.00;;;;5036400;27;83417;-72
2021/12/24 12:06:24;;;;;;;1.53;1.37;;;10.10;99.90;10.00;98683.00;;;;5047966;27;82789;-71
2021/12/24 12:08:56;;;;;;;1.97;1.53;;;10.10;99.90;10.00;98699.00;;;;5032283;27;89618;-71
2021/12/24 12:11:27;;;;;;;1.60;1.27;;;10.00;99.90;9.90;98683.00;;;;5035586;27;82959;-71
2021/12/24 12:13:54;;;;;;;1.87;0.93;;;10.00;99.90;10.00;98689.00;;;;5036677;27;83341;-71
2021/12/24 12:16:41;;;;;;;2.13;1.20;;;10.00;99.90;10.00;98685.00;;;;5044198;27;82757;-71
2021/12/24 12:19:25;;;;;;;1.83;1.33;;;10.10;99.90;10.00;98699.00;;;;5057114;27;82614;-71
2021/12/24 12:25:03;;;;;;;1.30;1.20;;;10.00;99.90;10.00;98693.00;;;;5051093;27;82478;-70
2021/12/24 12:27:52;;;;;;;2.53;1.27;;;10.00;99.90;10.00;98695.00;;;;5039758;27;82273;-69
2021/12/24 12:30:22;;;;;;;3.87;1.90;;;10.00;99.90;10.00;98686.00;;;;5025894;27;82909;-70
2021/12/24 12:32:50;;;;;;;2.20;1.70;;;10.10;99.90;10.00;98684.00;;;;5048630;27;83009;-71
2021/12/24 12:35:17;;;;;;;1.83;1.30;;;10.10;99.90;10.00;98677.00;;;;5051177;27;84940;-70
2021/12/24 12:37:56;;;;;;;1.77;1.57;;;10.10;99.90;10.00;98696.00;;;;5058287;27;83872;-70
2021/12/24 12:40:21;;;;;;;1.70;1.20;;;10.10;99.90;10.00;98679.00;;;;4986073;27;82764;-69
2021/12/24 12:42:50;;;;;;;1.67;1.27;;;10.10;99.90;10.10;98689.00;;;;5054543;27;82855;-69
2021/12/24 12:45:21;;;;;;;1.93;1.53;;;10.10;99.90;10.00;98688.00;;;;5053912;27;83727;-69
2021/12/24 12:47:55;;;;;;;3.47;1.27;;;10.10;99.90;10.10;98682.00;;;;5051131;27;92912;-69
2021/12/24 12:50:23;;;;;;;3.57;1.67;;;10.10;99.90;10.10;98682.00;;;;5033587;27;83681;-68
2021/12/24 12:52:51;;;;;;;1.63;1.10;;;10.10;99.90;10.10;98662.00;;;;5050916;27;97902;-71
2021/12/24 12:55:36;;;;;;;2.17;1.63;;;10.10;99.90;10.10;98669.00;;;;5055362;27;83072;-70